sensor_id;sensor_type;location;lat;lon;timestamp;P1;durP1;ratioP1;P2;durP2;ratioP2
71955;SDS011;59829;50.562;6.258;2023-06-22T00:05:48;3.33;;;1.80;;
71955;SDS011;59829;50.562;6.258;2023-06-22T00:15:49;3.72;;;1.80;;
71955;SDS011;59829;50.562;6.258;2023-06-22T00:25:49;2.70;;;1.70;;
71955;SDS011;59829;50.562;6.258;2023-06-22T00:35:50;2.38;;;1.70;;
71955;SDS011;59829;50.562;6.258;2023-06-22T00:45:52;3.75;;;2.00;;
71955;SDS011;59829;50.562;6.258;2023-06-22T00:55:56;2.80;;;1.70;;
71955;SDS011;59829;50.562;6.258;2023-06-22T01:06:02;3.10;;;1.95;;
71955;SDS011;59829;50.562;6.258;2023-06-22T01:16:20;2.65;;;1.75;;
71955;SDS011;59829;50.562;6.258;2023-06-22T01:26:28;4.90;;;2.00;;
71955;SDS011;59829;50.562;6.258;2023-06-22T01:36:50;3.72;;;2.30;;
71955;SDS011;59829;50.562;6.258;2023-06-22T01:46:52;2.80;;;1.73;;
71955;SDS011;59829;50.562;6.258;2023-06-22T01:56:53;3.07;;;2.00;;
71955;SDS011;59829;50.562;6.258;2023-06-22T02:06:56;2.92;;;1.77;;
71955;SDS011;59829;50.562;6.258;2023-06-22T02:16:59;2.50;;;1.73;;
71955;SDS011;59829;50.562;6.258;2023-06-22T02:27:00;4.10;;;1.88;;
71955;SDS011;59829;50.562;6.258;2023-06-22T02:37:01;3.03;;;1.90;;
71955;SDS011;59829;50.562;6.258;2023-06-22T02:47:02;3.60;;;2.10;;
71955;SDS011;59829;50.562;6.258;2023-06-22T02:57:03;4.70;;;2.25;;
71955;SDS011;59829;50.562;6.258;2023-06-22T03:07:04;3.25;;;2.25;;
71955;SDS011;59829;50.562;6.258;2023-06-22T03:17:04;4.03;;;2.33;;
71955;SDS011;59829;50.562;6.258;2023-06-22T03:27:06;4.13;;;2.57;;
71955;SDS011;59829;50.562;6.258;2023-06-22T03:37:06;5.47;;;2.40;;
71955;SDS011;59829;50.562;6.258;2023-06-22T03:47:07;4.40;;;2.53;;
71955;SDS011;59829;50.562;6.258;2023-06-22T03:57:07;4.40;;;2.47;;
71955;SDS011;59829;50.562;6.258;2023-06-22T04:07:07;4.07;;;2.60;;
71955;SDS011;59829;50.562;6.258;2023-06-22T04:17:08;4.68;;;2.70;;
71955;SDS011;59829;50.562;6.258;2023-06-22T04:27:08;3.95;;;2.53;;
71955;SDS011;59829;50.562;6.258;2023-06-22T04:37:09;4.25;;;2.50;;
71955;SDS011;59829;50.562;6.258;2023-06-22T04:47:09;3.92;;;2.53;;
71955;SDS011;59829;50.562;6.258;2023-06-22T04:57:10;4.57;;;2.60;;
71955;SDS011;59829;50.562;6.258;2023-06-22T05:07:10;4.20;;;2.67;;
71955;SDS011;59829;50.562;6.258;2023-06-22T05:17:10;5.60;;;2.90;;
71955;SDS011;59829;50.562;6.258;2023-06-22T05:27:13;6.38;;;3.35;;
71955;SDS011;59829;50.562;6.258;2023-06-22T05:37:14;6.90;;;3.28;;
71955;SDS011;59829;50.562;6.258;2023-06-22T05:47:15;5.47;;;3.20;;
71955;SDS011;59829;50.562;6.258;2023-06-22T05:57:15;6.25;;;3.95;;
71955;SDS011;59829;50.562;6.258;2023-06-22T06:07:15;6.03;;;3.75;;
71955;SDS011;59829;50.562;6.258;2023-06-22T06:17:16;6.20;;;3.80;;
71955;SDS011;59829;50.562;6.258;2023-06-22T06:27:16;4.88;;;2.92;;
71955;SDS011;59829;50.562;6.258;2023-06-22T06:37:19;5.68;;;3.13;;
71955;SDS011;59829;50.562;6.258;2023-06-22T06:47:19;4.68;;;3.22;;
71955;SDS011;59829;50.562;6.258;2023-06-22T06:57:20;5.07;;;3.50;;
71955;SDS011;59829;50.562;6.258;2023-06-22T07:07:20;6.18;;;3.38;;
71955;SDS011;59829;50.562;6.258;2023-06-22T07:17:21;5.93;;;3.33;;
71955;SDS011;59829;50.562;6.258;2023-06-22T07:27:21;5.88;;;3.80;;
71955;SDS011;59829;50.562;6.258;2023-06-22T07:37:21;5.45;;;3.42;;
71955;SDS011;59829;50.562;6.258;2023-06-22T07:47:22;5.22;;;3.30;;
71955;SDS011;59829;50.562;6.258;2023-06-22T09:03:53;5.32;;;3.35;;
71955;SDS011;59829;50.562;6.258;2023-06-22T09:13:58;6.72;;;3.50;;
71955;SDS011;59829;50.562;6.258;2023-06-22T09:23:58;7.38;;;4.40;;
71955;SDS011;59829;50.562;6.258;2023-06-22T09:45:00;9.20;;;3.70;;
71955;SDS011;59829;50.562;6.258;2023-06-22T12:18:11;7.15;;;4.63;;
71955;SDS011;59829;50.562;6.258;2023-06-22T12:28:11;6.78;;;4.25;;
71955;SDS011;59829;50.562;6.258;2023-06-22T12:38:11;6.65;;;4.13;;
71955;SDS011;59829;50.562;6.258;2023-06-22T12:48:12;7.18;;;4.72;;
71955;SDS011;59829;50.562;6.258;2023-06-22T12:58:12;7.40;;;4.73;;
71955;SDS011;59829;50.562;6.258;2023-06-22T13:08:13;7.38;;;4.13;;
71955;SDS011;59829;50.562;6.258;2023-06-22T13:18:14;7.20;;;4.77;;
71955;SDS011;59829;50.562;6.258;2023-06-22T13:28:14;7.15;;;4.40;;
71955;SDS011;59829;50.562;6.258;2023-06-22T13:38:15;6.18;;;3.97;;
71955;SDS011;59829;50.562;6.258;2023-06-22T13:48:17;5.97;;;3.65;;
71955;SDS011;59829;50.562;6.258;2023-06-22T13:58:17;5.28;;;3.65;;
71955;SDS011;59829;50.562;6.258;2023-06-22T14:08:19;10.18;;;5.47;;
71955;SDS011;59829;50.562;6.258;2023-06-22T14:18:21;6.87;;;4.80;;
71955;SDS011;59829;50.562;6.258;2023-06-22T14:28:22;8.70;;;4.27;;
71955;SDS011;59829;50.562;6.258;2023-06-22T17:34:39;0.85;;;0.70;;
71955;SDS011;59829;50.562;6.258;2023-06-22T17:44:40;1.20;;;1.10;;
71955;SDS011;59829;50.562;6.258;2023-06-22T17:54:41;1.20;;;1.00;;
71955;SDS011;59829;50.562;6.258;2023-06-22T18:04:41;1.27;;;1.00;;
71955;SDS011;59829;50.562;6.258;2023-06-22T18:14:42;0.95;;;0.52;;
71955;SDS011;59829;50.562;6.258;2023-06-22T18:24:43;0.25;;;0.20;;
71955;SDS011;59829;50.562;6.258;2023-06-22T18:34:44;0.20;;;0.20;;
71955;SDS011;59829;50.562;6.258;2023-06-22T18:44:44;0.25;;;0.20;;
71955;SDS011;59829;50.562;6.258;2023-06-22T18:54:52;0.10;;;0.00;;
71955;SDS011;59829;50.562;6.258;2023-06-22T19:15:13;1.58;;;0.90;;
71955;SDS011;59829;50.562;6.258;2023-06-22T19:25:18;2.53;;;1.52;;
71955;SDS011;59829;50.562;6.258;2023-06-22T19:35:19;3.15;;;1.95;;
71955;SDS011;59829;50.562;6.258;2023-06-22T19:45:20;2.97;;;1.88;;
71955;SDS011;59829;50.562;6.258;2023-06-22T19:55:21;3.38;;;2.10;;
71955;SDS011;59829;50.562;6.258;2023-06-22T20:05:21;3.92;;;2.20;;
71955;SDS011;59829;50.562;6.258;2023-06-22T20:15:23;5.15;;;2.83;;
71955;SDS011;59829;50.562;6.258;2023-06-22T20:25:26;4.88;;;2.90;;
71955;SDS011;59829;50.562;6.258;2023-06-22T20:35:30;5.25;;;3.30;;
71955;SDS011;59829;50.562;6.258;2023-06-22T20:45:30;6.78;;;4.03;;
71955;SDS011;59829;50.562;6.258;2023-06-22T20:55:31;7.20;;;4.22;;
71955;SDS011;59829;50.562;6.258;2023-06-22T21:05:40;7.43;;;4.75;;
71955;SDS011;59829;50.562;6.258;2023-06-22T21:15:41;7.72;;;4.88;;
71955;SDS011;59829;50.562;6.258;2023-06-22T21:25:41;6.65;;;3.92;;
71955;SDS011;59829;50.562;6.258;2023-06-22T21:35:41;9.48;;;6.05;;
71955;SDS011;59829;50.562;6.258;2023-06-22T21:45:41;8.25;;;5.10;;
71955;SDS011;59829;50.562;6.258;2023-06-22T21:55:42;8.88;;;5.05;;
71955;SDS011;59829;50.562;6.258;2023-06-22T22:05:42;8.07;;;4.85;;
71955;SDS011;59829;50.562;6.258;2023-06-22T22:15:42;8.40;;;5.07;;
71955;SDS011;59829;50.562;6.258;2023-06-22T22:25:43;10.52;;;6.50;;
71955;SDS011;59829;50.562;6.258;2023-06-22T22:35:43;11.02;;;6.43;;
71955;SDS011;59829;50.562;6.258;2023-06-22T22:45:43;10.60;;;6.50;;
71955;SDS011;59829;50.562;6.258;2023-06-22T22:55:43;8.07;;;5.60;;
71955;SDS011;59829;50.562;6.258;2023-06-22T23:05:44;10.07;;;6.35;;
71955;SDS011;59829;50.562;6.258;2023-06-22T23:15:44;11.65;;;5.95;;
71955;SDS011;59829;50.562;6.258;2023-06-22T23:25:44;9.77;;;6.13;;
71955;SDS011;59829;50.562;6.258;2023-06-22T23:35:45;10.82;;;6.78;;
71955;SDS011;59829;50.562;6.258;2023-06-22T23:45:45;9.32;;;5.85;;
71955;SDS011;59829;50.562;6.258;2023-06-22T23:55:46;11.85;;;6.53;;
